Time;durP1;ratioP1;P1;durP2;ratioP2;P2;SDS_P1;SDS_P2;PMS_P1;PMS_P2;Temp;Humidity;BMP_temperature;BMP_pressure;BME280_temperature;BME280_humidity;BME280_pressure;Samples;Min_cycle;Max_cycle;Signal;HPM_P1;HPM_P2
2021/12/08 00:02:12;;;;;;;11.45;3.20;;;4.80;92.40;;;;;;5039626;28;20026;-76
2021/12/08 00:04:38;;;;;;;9.68;2.75;;;4.90;92.40;;;;;;5038541;28;20121;-76
2021/12/08 00:07:06;;;;;;;7.40;2.50;;;4.90;92.30;;;;;;5038911;28;20026;-75
2021/12/08 00:09:48;;;;;;;10.90;2.38;;;4.90;92.40;;;;;;5039017;28;20036;-75
2021/12/08 00:15:00;;;;;;;6.75;1.88;;;5.00;92.20;;;;;;5039306;28;20037;-75
2021/12/08 00:17:26;;;;;;;9.50;1.80;;;5.10;92.10;;;;;;5038092;28;20116;-75
2021/12/08 00:19:52;;;;;;;9.57;1.73;;;5.20;92.00;;;;;;5038186;28;20033;-75
2021/12/08 00:22:18;;;;;;;6.60;2.13;;;5.20;92.00;;;;;;5028649;28;20038;-75
2021/12/08 00:24:44;;;;;;;5.63;1.50;;;5.30;91.80;;;;;;5037662;28;20117;-75
2021/12/08 00:27:11;;;;;;;3.80;1.40;;;5.30;91.80;;;;;;5037394;28;20022;-75
2021/12/08 00:29:37;;;;;;;6.03;1.65;;;5.40;91.90;;;;;;5038801;28;20030;-75
2021/12/08 00:32:03;;;;;;;7.75;1.70;;;5.40;91.50;;;;;;5038267;28;20053;-75
2021/12/08 00:34:31;;;;;;;12.30;2.17;;;5.40;91.60;;;;;;5039589;28;20048;-75
2021/12/08 00:37:00;;;;;;;8.50;1.98;;;5.40;91.50;;;;;;5038696;28;20464;-75
2021/12/08 00:39:26;;;;;;;7.85;1.67;;;5.40;91.60;;;;;;5037347;28;20089;-75
2021/12/08 00:41:52;;;;;;;7.13;1.88;;;5.40;91.60;;;;;;5038720;28;20045;-75
2021/12/08 00:44:18;;;;;;;8.05;1.85;;;5.40;91.60;;;;;;5039043;28;20064;-75
2021/12/08 00:46:44;;;;;;;6.53;1.55;;;5.50;91.50;;;;;;5038100;28;20022;-75
2021/12/08 00:49:13;;;;;;;8.23;1.58;;;5.40;91.40;;;;;;5038684;28;20021;-75
2021/12/08 00:51:39;;;;;;;8.07;1.33;;;5.40;91.20;;;;;;5038554;28;20037;-75
2021/12/08 00:54:05;;;;;;;7.28;1.75;;;5.40;91.00;;;;;;5038573;28;20033;-75
2021/12/08 00:56:31;;;;;;;3.53;1.17;;;5.40;90.90;;;;;;5039055;28;20036;-75
2021/12/08 00:58:57;;;;;;;7.50;1.48;;;5.40;90.40;;;;;;5038608;28;20055;-75
2021/12/08 01:01:24;;;;;;;6.43;1.42;;;5.40;90.30;;;;;;5038094;28;20029;-75
2021/12/08 01:03:51;;;;;;;5.07;1.20;;;5.40;90.20;;;;;;5038526;28;20117;-75
2021/12/08 01:06:17;;;;;;;5.28;1.80;;;5.40;90.10;;;;;;5035395;28;20030;-75
2021/12/08 01:08:45;;;;;;;5.10;1.50;;;5.40;90.20;;;;;;5036996;28;20022;-75
2021/12/08 01:11:15;;;;;;;4.60;1.52;;;5.40;90.30;;;;;;5037029;28;20400;-76
2021/12/08 01:13:41;;;;;;;6.63;1.50;;;5.40;90.50;;;;;;5038250;28;20025;-76
2021/12/08 01:16:07;;;;;;;11.73;1.63;;;5.30;90.70;;;;;;5037825;28;20052;-76
2021/12/08 01:18:33;;;;;;;7.43;1.75;;;5.30;90.80;;;;;;5034533;28;20033;-76
2021/12/08 01:21:01;;;;;;;4.97;1.80;;;5.40;91.00;;;;;;5037326;28;20021;-76
2021/12/08 01:23:27;;;;;;;11.80;2.35;;;5.30;91.00;;;;;;5035648;28;20412;-76
2021/12/08 01:25:54;;;;;;;8.63;2.22;;;5.30;91.00;;;;;;5037100;28;20108;-76
2021/12/08 01:28:22;;;;;;;6.10;2.15;;;5.40;91.00;;;;;;5036408;28;20473;-75
2021/12/08 01:30:50;;;;;;;7.82;1.90;;;5.30;91.10;;;;;;5037096;28;20024;-75
2021/12/08 01:33:16;;;;;;;7.88;2.35;;;5.30;91.40;;;;;;5037968;28;20028;-75
2021/12/08 01:35:42;;;;;;;5.43;1.83;;;5.30;91.10;;;;;;5037465;28;20567;-75
2021/12/08 01:38:08;;;;;;;5.00;1.75;;;5.40;91.20;;;;;;5037153;28;20065;-75
2021/12/08 01:40:34;;;;;;;5.50;2.13;;;5.40;91.40;;;;;;5037383;28;20026;-75
2021/12/08 01:43:02;;;;;;;5.88;2.20;;;5.40;91.10;;;;;;5037336;28;20032;-75
2021/12/08 01:48:17;;;;;;;4.50;1.90;;;5.30;91.10;;;;;;5037914;28;20040;-75
2021/12/08 01:50:47;;;;;;;7.00;1.80;;;5.30;91.20;;;;;;5036147;28;20025;-75
2021/12/08 01:53:14;;;;;;;9.32;1.90;;;5.20;91.20;;;;;;5037478;28;20018;-75
2021/12/08 01:55:40;;;;;;;6.25;1.70;;;5.20;91.30;;;;;;5035962;28;20025;-76
2021/12/08 01:58:08;;;;;;;9.63;1.85;;;5.10;91.40;;;;;;5037899;28;20082;-75
2021/12/08 02:00:43;;;;;;;6.93;2.10;;;5.10;91.50;;;;;;5037314;28;20021;-75
2021/12/08 02:03:09;;;;;;;4.80;1.63;;;5.00;91.50;;;;;;5037818;28;20025;-75
2021/12/08 02:05:36;;;;;;;5.13;1.40;;;5.00;91.60;;;;;;5037701;28;20101;-75
2021/12/08 02:08:03;;;;;;;6.78;1.50;;;5.00;91.70;;;;;;5036395;28;20034;-75
2021/12/08 02:10:29;;;;;;;7.60;1.30;;;4.90;91.80;;;;;;5037322;28;20029;-75
2021/12/08 02:12:55;;;;;;;6.22;1.17;;;4.90;91.80;;;;;;5037137;28;20028;-75
2021/12/08 02:15:21;;;;;;;4.55;1.15;;;4.90;91.90;;;;;;5036750;28;20029;-75
2021/12/08 02:17:51;;;;;;;7.00;1.55;;;4.80;91.90;;;;;;5036325;28;20029;-75
2021/12/08 02:20:18;;;;;;;7.22;1.20;;;4.80;91.90;;;;;;5036841;28;20116;-75
2021/12/08 02:22:44;;;;;;;7.07;1.10;;;4.80;92.00;;;;;;5037065;28;20026;-75
2021/12/08 02:25:15;;;;;;;5.53;1.20;;;4.80;92.10;;;;;;5036562;28;20826;-75
2021/12/08 02:27:42;;;;;;;4.70;1.10;;;4.80;92.10;;;;;;5035903;28;20029;-75
2021/12/08 02:49:27;;;;;;;3.92;1.33;;;4.50;92.50;;;;;;5036596;28;20091;-75
2021/12/08 02:51:54;;;;;;;4.85;1.70;;;4.50;92.60;;;;;;5036683;28;20053;-75
2021/12/08 02:54:21;;;;;;;7.95;1.90;;;4.50;92.80;;;;;;5037161;28;20543;-75
2021/12/08 02:56:47;;;;;;;7.80;1.70;;;4.40;92.80;;;;;;5037066;28;20469;-75
2021/12/08 02:59:13;;;;;;;4.55;1.45;;;4.40;93.00;;;;;;5035200;28;20045;-75
2021/12/08 03:01:39;;;;;;;4.55;1.95;;;4.40;93.00;;;;;;5036409;28;20026;-75
2021/12/08 03:04:07;;;;;;;6.18;1.55;;;4.40;93.20;;;;;;5031801;28;20053;-75
2021/12/08 03:06:34;;;;;;;8.82;1.70;;;4.40;93.20;;;;;;5036809;28;20036;-75
2021/12/08 03:09:00;;;;;;;11.13;2.53;;;4.30;93.30;;;;;;5035639;28;20388;-75
2021/12/08 03:11:26;;;;;;;7.10;2.83;;;4.30;93.40;;;;;;5036191;28;20030;-76
2021/12/08 03:14:06;;;;;;;9.18;1.60;;;4.30;93.40;;;;;;5035981;28;20473;-75
2021/12/08 03:16:33;;;;;;;7.82;1.90;;;4.30;93.50;;;;;;5036790;28;20026;-75
2021/12/08 03:18:59;;;;;;;7.00;1.65;;;4.30;93.60;;;;;;5035523;28;20029;-75
2021/12/08 03:21:28;;;;;;;5.20;1.30;;;4.30;93.70;;;;;;5036221;28;20036;-75
2021/12/08 03:27:31;;;;;;;4.30;1.38;;;4.30;93.80;;;;;;5036000;28;20511;-75
2021/12/08 03:29:37;;;;;;;6.53;1.45;;;4.30;93.80;;;;;;5038201;28;20029;-75
2021/12/08 03:32:08;;;;;;;4.28;1.50;;;4.30;93.70;;;;;;5036716;28;20033;-75
2021/12/08 03:34:38;;;;;;;7.07;1.52;;;4.30;93.70;;;;;;5036314;28;20385;-75
2021/12/08 03:37:06;;;;;;;7.55;3.00;;;4.30;93.60;;;;;;5035625;28;20499;-75
2021/12/08 03:39:32;;;;;;;7.35;2.00;;;4.30;93.80;;;;;;5034974;28;20056;-75
2021/12/08 03:41:59;;;;;;;5.47;1.33;;;4.30;93.50;;;;;;5036264;28;20041;-75
2021/12/08 03:44:25;;;;;;;4.93;1.80;;;4.30;93.40;;;;;;5036247;28;20021;-75
2021/12/08 03:46:55;;;;;;;4.78;1.30;;;4.30;93.30;;;;;;5037420;28;20033;-75
2021/12/08 03:49:22;;;;;;;8.00;1.80;;;4.20;93.20;;;;;;5038675;28;20372;-75
2021/12/08 03:51:48;;;;;;;5.82;1.70;;;4.20;93.20;;;;;;5039563;28;20495;-75
2021/12/08 03:54:14;;;;;;;4.90;1.70;;;4.20;93.20;;;;;;5039276;28;20030;-75
2021/12/08 03:56:40;;;;;;;8.40;1.90;;;4.20;93.20;;;;;;5038683;28;20061;-75
2021/12/08 03:59:06;;;;;;;5.78;1.52;;;4.10;93.10;;;;;;5039735;28;20378;-75
2021/12/08 04:01:34;;;;;;;4.97;1.50;;;4.10;93.20;;;;;;5037659;28;20033;-75
2021/12/08 04:04:06;;;;;;;8.18;1.60;;;4.10;93.30;;;;;;5039669;28;20029;-75
2021/12/08 04:06:44;;;;;;;4.35;1.50;;;4.10;93.30;;;;;;5039326;28;20026;-75
2021/12/08 04:09:18;;;;;;;3.88;1.50;;;4.10;93.30;;;;;;5028996;28;20025;-75
2021/12/08 04:11:45;;;;;;;5.85;1.40;;;4.10;93.30;;;;;;5038951;28;20025;-75
2021/12/08 04:14:15;;;;;;;5.35;1.20;;;4.20;93.40;;;;;;5038684;28;20091;-76
2021/12/08 04:16:48;;;;;;;5.88;1.17;;;4.10;93.40;;;;;;5038270;28;20427;-75
2021/12/08 04:19:15;;;;;;;4.68;1.67;;;4.10;93.40;;;;;;5037346;28;20025;-75
2021/12/08 04:21:45;;;;;;;7.50;1.38;;;4.10;93.30;;;;;;5037094;28;20029;-75
2021/12/08 04:24:12;;;;;;;5.50;1.40;;;4.00;93.30;;;;;;5028099;28;20026;-75
2021/12/08 04:26:49;;;;;;;6.35;1.20;;;4.00;93.20;;;;;;5038660;28;20036;-76
2021/12/08 04:29:16;;;;;;;4.38;1.20;;;4.00;93.20;;;;;;5038479;28;20029;-75
2021/12/08 04:31:43;;;;;;;5.57;1.20;;;4.00;93.20;;;;;;5038491;28;20030;-75
2021/12/08 04:34:17;;;;;;;4.65;1.35;;;4.00;93.20;;;;;;5037730;28;20053;-75
2021/12/08 04:36:47;;;;;;;6.88;1.25;;;4.00;93.20;;;;;;5037204;28;20029;-75
2021/12/08 04:39:24;;;;;;;3.70;1.58;;;4.00;93.20;;;;;;5038421;28;20072;-75
2021/12/08 04:41:58;;;;;;;2.45;1.10;;;4.00;93.20;;;;;;5038000;28;20081;-75
2021/12/08 04:44:31;;;;;;;4.60;1.10;;;4.00;93.10;;;;;;5037344;28;20097;-75
2021/12/08 04:47:30;;;;;;;2.55;1.20;;;4.00;93.10;;;;;;5038751;28;20026;-75
2021/12/08 04:53:38;;;;;;;2.97;1.00;;;4.00;92.90;;;;;;5017225;28;20459;-75
2021/12/08 05:06:59;;;;;;;2.50;0.80;;;4.10;92.50;;;;;;5036529;28;20044;-75
2021/12/08 05:09:30;;;;;;;6.50;1.10;;;4.10;92.40;;;;;;5037463;28;20017;-75
2021/12/08 05:12:10;;;;;;;3.33;1.10;;;4.20;92.30;;;;;;5030380;28;20029;-75
2021/12/08 05:14:44;;;;;;;4.03;1.00;;;4.30;92.20;;;;;;5037380;28;20041;-74
2021/12/08 05:17:15;;;;;;;5.93;1.10;;;4.40;92.00;;;;;;5035442;28;20038;-75
2021/12/08 05:19:44;;;;;;;4.80;1.45;;;4.40;91.80;;;;;;5037492;28;20029;-75
2021/12/08 05:22:22;;;;;;;3.25;1.13;;;4.50;91.60;;;;;;5037127;28;20041;-75
2021/12/08 05:24:51;;;;;;;3.92;0.90;;;4.50;91.60;;;;;;5037569;28;20026;-75
2021/12/08 05:27:22;;;;;;;4.75;1.00;;;4.50;91.50;;;;;;5038020;28;20022;-75
2021/12/08 05:29:56;;;;;;;4.30;1.38;;;4.50;91.50;;;;;;5037739;28;20061;-75
2021/12/08 05:32:22;;;;;;;4.82;0.98;;;4.60;91.50;;;;;;5037886;28;20071;-75
2021/12/08 05:34:49;;;;;;;4.70;1.02;;;4.60;91.40;;;;;;5036950;28;20013;-75
2021/12/08 05:37:17;;;;;;;2.90;0.90;;;4.60;91.30;;;;;;5036147;28;20030;-75
2021/12/08 05:39:43;;;;;;;5.35;1.55;;;4.70;91.30;;;;;;5036815;28;20053;-72
2021/12/08 05:42:17;;;;;;;6.38;1.17;;;4.70;91.20;;;;;;5036686;28;20041;-74
2021/12/08 05:44:43;;;;;;;4.15;1.20;;;4.80;91.10;;;;;;5036268;28;20119;-75
2021/12/08 05:47:14;;;;;;;5.03;1.30;;;4.80;91.10;;;;;;5036754;28;20029;-72
2021/12/08 05:49:40;;;;;;;7.90;1.30;;;4.90;91.20;;;;;;5036809;28;20025;-72
2021/12/08 05:52:07;;;;;;;6.10;1.20;;;4.90;91.20;;;;;;5037632;28;20064;-77
2021/12/08 05:54:37;;;;;;;3.25;1.40;;;4.90;91.20;;;;;;5035964;28;20460;-75
2021/12/08 05:57:14;;;;;;;4.95;1.33;;;5.00;91.20;;;;;;5036683;28;20057;-75
2021/12/08 05:59:41;;;;;;;3.90;1.85;;;5.00;91.10;;;;;;5028146;28;20116;-75
2021/12/08 06:02:19;;;;;;;6.20;1.23;;;5.00;91.10;;;;;;5036377;28;20116;-76
2021/12/08 06:04:46;;;;;;;3.55;1.08;;;5.00;91.20;;;;;;5037621;28;20013;-81
2021/12/08 06:07:13;;;;;;;3.80;1.13;;;5.00;91.10;;;;;;5035567;28;20056;-78
2021/12/08 06:09:40;;;;;;;3.38;1.10;;;5.00;91.10;;;;;;5035641;28;20018;-71
2021/12/08 06:12:09;;;;;;;6.93;1.73;;;4.90;91.10;;;;;;5036573;28;20024;-73
2021/12/08 06:14:36;;;;;;;6.43;1.65;;;4.90;91.30;;;;;;5035630;28;20017;-75
2021/12/08 06:17:09;;;;;;;5.63;1.48;;;4.90;91.40;;;;;;5032324;28;20037;-72
2021/12/08 06:19:36;;;;;;;4.25;1.15;;;4.90;91.60;;;;;;5032222;28;20384;-72
2021/12/08 06:22:04;;;;;;;3.42;1.20;;;4.90;91.50;;;;;;5036479;28;20057;-71
2021/12/08 06:24:36;;;;;;;5.13;1.20;;;4.90;91.50;;;;;;5036849;28;20026;-74
2021/12/08 06:27:03;;;;;;;2.58;0.90;;;4.80;91.50;;;;;;5035820;28;20029;-73
2021/12/08 06:29:29;;;;;;;4.68;1.33;;;4.80;91.50;;;;;;5036787;28;20029;-73
2021/12/08 06:31:57;;;;;;;5.30;1.40;;;4.80;91.70;;;;;;5037228;28;20037;-73
2021/12/08 06:34:24;;;;;;;3.55;1.20;;;4.70;91.70;;;;;;5037409;28;20026;-73
2021/12/08 06:36:55;;;;;;;4.80;1.30;;;4.70;91.80;;;;;;5036735;28;20048;-73
2021/12/08 06:39:30;;;;;;;6.78;2.10;;;4.70;91.90;;;;;;5036552;28;20187;-74
2021/12/08 06:42:00;;;;;;;11.32;3.05;;;4.60;91.90;;;;;;5024492;28;20055;-72
2021/12/08 06:44:30;;;;;;;8.77;2.90;;;4.60;91.90;;;;;;5036568;28;20392;-72
2021/12/08 06:46:58;;;;;;;7.65;3.83;;;4.50;91.90;;;;;;5037259;28;20101;-73
2021/12/08 06:49:24;;;;;;;12.13;4.60;;;4.50;91.90;;;;;;5036867;28;20024;-73
2021/12/08 06:52:04;;;;;;;8.30;4.30;;;4.40;91.90;;;;;;5036816;28;20052;-72
2021/12/08 06:54:36;;;;;;;8.57;4.03;;;4.40;92.00;;;;;;5036524;28;20022;-73
2021/12/08 06:57:20;;;;;;;7.18;2.97;;;4.40;92.10;;;;;;5036967;28;20075;-73
2021/12/08 07:00:00;;;;;;;4.60;1.58;;;4.30;92.10;;;;;;5034833;28;20043;-73
2021/12/08 07:02:51;;;;;;;4.43;1.80;;;4.30;92.30;;;;;;5035884;28;20459;-73
2021/12/08 07:05:30;;;;;;;3.88;1.80;;;4.30;92.40;;;;;;5034762;28;20033;-73
2021/12/08 07:08:04;;;;;;;5.22;1.50;;;4.30;92.50;;;;;;5036517;28;20021;-72
2021/12/08 07:10:39;;;;;;;6.07;1.65;;;4.20;92.50;;;;;;5035719;28;20103;-74
2021/12/08 07:13:16;;;;;;;83.68;32.40;;;4.20;92.50;;;;;;5028915;28;20083;-74
2021/12/08 07:15:47;;;;;;;57.10;22.98;;;4.20;92.50;;;;;;5035559;28;20033;-75
2021/12/08 07:18:25;;;;;;;25.15;10.82;;;4.10;92.50;;;;;;5031658;28;20025;-75
2021/12/08 07:20:58;;;;;;;21.13;8.32;;;4.10;92.50;;;;;;5035216;28;20396;-75
2021/12/08 07:23:43;;;;;;;;;;;4.00;92.50;;;;;;5040886;28;20048;-75
2021/12/08 07:26:30;;;;;;;9.27;4.30;;;4.00;92.60;;;;;;5028914;28;20364;-73
2021/12/08 07:28:57;;;;;;;8.38;2.97;;;4.00;92.60;;;;;;5040597;28;20049;-74
2021/12/08 07:31:28;;;;;;;5.65;3.00;;;4.00;92.70;;;;;;5040681;28;20018;-74
2021/12/08 07:34:02;;;;;;;7.68;3.20;;;4.00;92.70;;;;;;5039205;28;20021;-74
2021/12/08 07:36:29;;;;;;;6.60;3.25;;;4.00;92.80;;;;;;5039029;28;20091;-74
2021/12/08 07:38:56;;;;;;;7.57;3.10;;;4.00;92.90;;;;;;5040059;28;20479;-74
2021/12/08 07:41:32;;;;;;;5.72;2.78;;;4.00;92.90;;;;;;5040429;28;20030;-74
2021/12/08 07:44:05;;;;;;;5.28;2.45;;;4.10;93.00;;;;;;5040568;28;20025;-74
2021/12/08 07:46:36;;;;;;;6.15;2.85;;;4.10;93.10;;;;;;5039928;28;20057;-74
2021/12/08 07:49:15;;;;;;;7.60;2.47;;;4.10;93.10;;;;;;5040432;28;20028;-74
2021/12/08 07:52:04;;;;;;;10.93;2.40;;;4.20;93.20;;;;;;5028690;28;20029;-74
2021/12/08 07:54:32;;;;;;;6.50;1.77;;;4.20;93.10;;;;;;5039542;28;20087;-74
2021/12/08 07:56:59;;;;;;;5.90;1.65;;;4.20;93.10;;;;;;5040328;28;20033;-74
2021/12/08 07:59:26;;;;;;;5.35;1.30;;;4.20;93.10;;;;;;5039980;28;20522;-74
2021/12/08 08:01:55;;;;;;;7.63;1.50;;;4.20;93.10;;;;;;5040130;28;20484;-74
2021/12/08 08:04:25;;;;;;;4.03;1.65;;;4.20;93.10;;;;;;5039916;28;20558;-74
2021/12/08 08:06:55;;;;;;;6.00;1.30;;;4.20;93.10;;;;;;5039596;28;20068;-74
2021/12/08 08:09:26;;;;;;;5.45;1.73;;;4.20;93.10;;;;;;5040019;28;20010;-74
2021/12/08 08:11:57;;;;;;;8.48;2.53;;;4.20;93.20;;;;;;5039736;28;20018;-74
2021/12/08 08:14:42;;;;;;;6.93;2.10;;;4.20;93.20;;;;;;5040020;28;20055;-74
2021/12/08 08:17:13;;;;;;;6.35;1.67;;;4.10;93.20;;;;;;5039602;28;20551;-74
2021/12/08 08:19:44;;;;;;;7.90;1.75;;;4.20;93.30;;;;;;5039934;28;20029;-74
2021/12/08 08:22:16;;;;;;;6.50;2.00;;;4.20;93.30;;;;;;5038986;28;20038;-74
2021/12/08 08:24:42;;;;;;;4.87;2.10;;;4.20;93.40;;;;;;5039602;28;20029;-74
2021/12/08 08:27:10;;;;;;;5.60;2.03;;;4.30;93.50;;;;;;5039614;28;20288;-73
2021/12/08 08:29:37;;;;;;;8.48;2.85;;;4.30;93.50;;;;;;5038166;28;20025;-74
2021/12/08 08:32:11;;;;;;;7.07;2.42;;;4.40;93.60;;;;;;5039165;28;20073;-74
2021/12/08 08:34:42;;;;;;;5.70;2.20;;;4.40;93.60;;;;;;5039446;28;20484;-74
2021/12/08 08:37:11;;;;;;;11.90;2.43;;;4.40;93.50;;;;;;5039353;28;20029;-74
2021/12/08 08:39:45;;;;;;;5.55;2.22;;;4.50;93.50;;;;;;5039037;28;20295;-74
2021/12/08 08:42:22;;;;;;;6.47;2.10;;;4.60;93.40;;;;;;5039293;28;20032;-74
2021/12/08 08:45:09;;;;;;;6.30;2.05;;;4.60;93.40;;;;;;5038859;28;20037;-74
2021/12/08 08:47:44;;;;;;;6.38;1.88;;;4.70;93.30;;;;;;5039115;28;20057;-74
2021/12/08 08:50:15;;;;;;;6.85;1.70;;;4.70;93.10;;;;;;5039409;28;20029;-74
2021/12/08 08:52:46;;;;;;;7.82;1.98;;;4.70;92.90;;;;;;5038765;28;20017;-74
2021/12/08 08:55:22;;;;;;;10.00;2.72;;;4.70;92.90;;;;;;5039078;28;20028;-74
2021/12/08 08:57:49;;;;;;;10.15;2.88;;;4.70;92.80;;;;;;5038901;28;20021;-74
2021/12/08 09:00:32;;;;;;;6.25;2.10;;;4.70;92.70;;;;;;5039092;28;20034;-74
2021/12/08 09:03:03;;;;;;;;;;;4.70;92.60;;;;;;5028010;28;20484;-74
2021/12/08 09:05:37;;;;;;;9.38;2.33;;;4.70;92.70;;;;;;5038887;28;19905;-73
2021/12/08 09:08:05;;;;;;;4.55;2.15;;;4.70;92.60;;;;;;5038626;28;20025;-74
2021/12/08 09:10:46;;;;;;;7.60;1.75;;;4.80;92.50;;;;;;5038597;28;20036;-73
2021/12/08 09:13:17;;;;;;;5.07;2.05;;;4.70;92.40;;;;;;5038588;28;20021;-74
2021/12/08 09:15:49;;;;;;;5.32;2.10;;;4.70;92.40;;;;;;5026042;28;20021;-74
2021/12/08 09:18:30;;;;;;;5.30;2.30;;;4.70;92.40;;;;;;5038386;28;20028;-74
2021/12/08 09:21:17;;;;;;;8.65;2.15;;;4.70;92.50;;;;;;5038303;28;20489;-74
2021/12/08 09:23:55;;;;;;;7.30;2.58;;;4.70;92.50;;;;;;5038282;28;20033;-74
2021/12/08 09:26:24;;;;;;;5.40;2.97;;;4.70;92.50;;;;;;5036977;28;20033;-74
2021/12/08 09:28:59;;;;;;;9.15;3.38;;;4.70;92.70;;;;;;5037194;28;20030;-74
2021/12/08 09:31:45;;;;;;;6.10;2.25;;;4.80;92.90;;;;;;5038241;28;20037;-73
2021/12/08 09:34:25;;;;;;;7.10;3.03;;;5.10;92.80;;;;;;5031738;28;20449;-74
2021/12/08 09:37:09;;;;;;;9.27;3.97;;;5.50;92.60;;;;;;5038083;28;20021;-73
2021/12/08 09:39:58;;;;;;;10.00;4.32;;;5.80;92.30;;;;;;5036528;28;20556;-73
2021/12/08 09:42:36;;;;;;;7.90;2.53;;;6.20;91.60;;;;;;5038068;28;20075;-74
2021/12/08 09:45:31;;;;;;;8.45;2.78;;;6.50;90.90;;;;;;5037210;28;20109;-74
2021/12/08 09:48:02;;;;;;;8.98;2.90;;;6.80;90.00;;;;;;5031481;28;20037;-74
2021/12/08 09:50:27;;;;;;;8.88;2.47;;;7.10;89.30;;;;;;5038207;28;20025;-74
2021/12/08 09:52:54;;;;;;;9.07;2.65;;;7.30;88.40;;;;;;5037592;28;20083;-73
2021/12/08 09:55:20;;;;;;;8.10;2.60;;;7.60;87.60;;;;;;5037960;28;20026;-75
2021/12/08 09:57:47;;;;;;;7.72;1.75;;;7.80;87.00;;;;;;5036522;28;20167;-74
2021/12/08 10:00:26;;;;;;;6.95;1.60;;;8.00;86.30;;;;;;5038091;28;20047;-75
2021/12/08 10:02:58;;;;;;;7.70;1.95;;;8.10;86.10;;;;;;5025448;28;20022;-75
2021/12/08 10:05:27;;;;;;;6.10;1.80;;;8.40;86.50;;;;;;5037910;28;20033;-75
2021/12/08 10:07:54;;;;;;;7.88;1.70;;;8.90;82.90;;;;;;5037469;28;20108;-75
2021/12/08 10:10:20;;;;;;;6.65;1.80;;;9.20;82.60;;;;;;5037426;28;20025;-74
2021/12/08 10:12:46;;;;;;;8.55;1.95;;;9.40;81.50;;;;;;5037518;28;20017;-73
2021/12/08 10:15:16;;;;;;;5.30;2.05;;;9.70;79.90;;;;;;5037607;28;20026;-74
2021/12/08 10:17:42;;;;;;;4.18;1.90;;;9.90;81.00;;;;;;5037214;28;20049;-74
2021/12/08 10:20:13;;;;;;;8.95;2.03;;;10.10;80.60;;;;;;5034555;28;20112;-74
2021/12/08 10:22:42;;;;;;;6.68;1.70;;;10.20;80.80;;;;;;5028304;28;20025;-74
2021/12/08 10:25:19;;;;;;;7.65;1.85;;;10.60;81.10;;;;;;5037288;28;20400;-74
2021/12/08 10:28:09;;;;;;;6.28;1.70;;;11.10;79.10;;;;;;5037546;28;20029;-75
2021/12/08 10:30:46;;;;;;;8.35;1.70;;;11.50;78.20;;;;;;5027082;28;20124;-76
2021/12/08 10:39:25;;;;;;;6.63;1.40;;;12.60;71.40;;;;;;4985558;28;20050;-73
2021/12/08 10:42:14;;;;;;;6.30;1.60;;;12.90;71.00;;;;;;5025846;28;20389;-73
2021/12/08 10:44:49;;;;;;;7.07;1.60;;;13.10;68.90;;;;;;5036819;28;20071;-72
2021/12/08 10:47:23;;;;;;;5.10;1.30;;;13.20;69.60;;;;;;5037300;28;20029;-72
2021/12/08 10:55:17;;;;;;;5.65;1.33;;;13.20;67.70;;;;;;5037337;28;20033;-74
2021/12/08 10:57:49;;;;;;;6.93;1.35;;;13.30;68.20;;;;;;5041296;28;20103;-73
2021/12/08 11:00:33;;;;;;;6.18;1.77;;;13.40;65.90;;;;;;5039927;28;20055;-72
2021/12/08 11:03:14;;;;;;;5.45;1.50;;;13.40;63.60;;;;;;5030076;28;20034;-73
2021/12/08 11:05:42;;;;;;;6.53;1.60;;;13.50;65.20;;;;;;5040931;28;20021;-72
2021/12/08 11:08:15;;;;;;;7.03;2.03;;;13.60;63.90;;;;;;5040875;28;20029;-73
2021/12/08 11:10:49;;;;;;;3.83;1.70;;;13.60;63.90;;;;;;5039636;28;20443;-73
2021/12/08 11:13:18;;;;;;;6.22;1.60;;;13.60;65.10;;;;;;5034275;28;20021;-73
2021/12/08 11:15:45;;;;;;;5.93;1.80;;;13.70;65.40;;;;;;5041118;28;20025;-73
2021/12/08 11:18:19;;;;;;;7.93;2.17;;;13.80;64.80;;;;;;5040433;28;20447;-73
2021/12/08 11:20:59;;;;;;;4.68;2.30;;;13.80;64.00;;;;;;5032829;28;20110;-73
2021/12/08 11:23:44;;;;;;;6.57;2.20;;;13.80;63.20;;;;;;5037982;28;20036;-73
2021/12/08 11:26:30;;;;;;;5.78;2.13;;;13.90;63.60;;;;;;5040763;28;20108;-74
2021/12/08 11:29:07;;;;;;;8.68;2.40;;;13.80;64.00;;;;;;5029089;28;20038;-73
2021/12/08 11:31:40;;;;;;;8.23;2.63;;;13.70;62.60;;;;;;5040569;28;20021;-73
2021/12/08 11:34:13;;;;;;;7.22;2.40;;;13.50;60.20;;;;;;5033130;28;20102;-74
2021/12/08 11:36:40;;;;;;;8.43;2.50;;;13.40;62.50;;;;;;5027687;28;20034;-76
2021/12/08 11:39:13;;;;;;;8.23;2.80;;;13.60;62.90;;;;;;5040344;28;20088;-73
2021/12/08 11:41:40;;;;;;;6.20;2.33;;;13.50;62.30;;;;;;5040585;28;20085;-73
2021/12/08 11:44:18;;;;;;;6.70;2.05;;;13.60;62.90;;;;;;5040307;28;20396;-73
2021/12/08 11:47:03;;;;;;;5.68;2.53;;;13.70;62.80;;;;;;5040211;28;20036;-72
2021/12/08 11:49:29;;;;;;;8.52;2.10;;;13.60;60.50;;;;;;5040217;28;20026;-72
2021/12/08 11:52:10;;;;;;;7.82;2.00;;;13.70;62.50;;;;;;5040053;28;20021;-75
2021/12/08 11:54:51;;;;;;;7.75;1.95;;;13.70;62.10;;;;;;5040033;28;20025;-73
2021/12/08 11:57:25;;;;;;;6.13;1.92;;;13.80;62.20;;;;;;5040112;28;20078;-73
2021/12/08 12:00:19;;;;;;;7.68;1.88;;;13.80;61.40;;;;;;5040215;28;20032;-73
2021/12/08 12:02:57;;;;;;;7.60;1.60;;;13.80;61.30;;;;;;5039945;28;20075;-73
2021/12/08 12:05:32;;;;;;;5.22;1.50;;;14.00;63.30;;;;;;5040243;28;20033;-72
2021/12/08 12:07:59;;;;;;;5.25;1.35;;;13.90;62.20;;;;;;5039226;28;20030;-73
2021/12/08 12:10:31;;;;;;;5.22;1.30;;;14.10;63.70;;;;;;5039772;28;20199;-73
2021/12/08 12:12:59;;;;;;;5.30;1.48;;;14.00;61.90;;;;;;5039712;28;20022;-74
2021/12/08 12:15:25;;;;;;;4.75;1.50;;;14.10;63.20;;;;;;5039770;28;20028;-73
2021/12/08 12:17:52;;;;;;;6.57;2.17;;;14.10;61.90;;;;;;5039193;28;20022;-73
2021/12/08 12:20:24;;;;;;;6.28;1.55;;;14.10;61.40;;;;;;5035420;28;20033;-74
2021/12/08 12:23:09;;;;;;;4.10;1.60;;;14.10;61.80;;;;;;5031754;28;20100;-73
2021/12/08 12:26:09;;;;;;;3.47;1.45;;;14.10;61.70;;;;;;5028055;28;20037;-73
2021/12/08 12:28:56;;;;;;;7.50;1.73;;;13.90;61.50;;;;;;5025818;28;20480;-73
2021/12/08 12:31:52;;;;;;;5.07;2.55;;;13.90;60.90;;;;;;5039507;28;20030;-73
2021/12/08 12:34:31;;;;;;;6.82;1.70;;;13.80;60.10;;;;;;5032812;28;20029;-73
2021/12/08 12:36:58;;;;;;;7.55;1.60;;;13.40;60.00;;;;;;5028037;28;20044;-73
2021/12/08 12:39:28;;;;;;;5.70;2.03;;;13.20;61.20;;;;;;5039116;28;20050;-73
2021/12/08 12:42:04;;;;;;;6.05;2.47;;;12.90;61.50;;;;;;5039525;28;20025;-73
2021/12/08 12:44:31;;;;;;;8.10;2.42;;;12.70;61.70;;;;;;5039155;28;20041;-74
2021/12/08 12:49:37;;;;;;;3.85;2.15;;;12.20;62.70;;;;;;5039254;28;20029;-74
2021/12/08 12:52:09;;;;;;;6.35;2.67;;;12.00;64.60;;;;;;5037593;28;20045;-73
2021/12/08 12:54:37;;;;;;;7.32;2.33;;;11.90;63.80;;;;;;5038936;28;20472;-74
2021/12/08 12:57:06;;;;;;;8.38;3.20;;;11.90;64.20;;;;;;5039140;28;20025;-74
2021/12/08 12:59:42;;;;;;;6.93;2.80;;;11.90;64.80;;;;;;5038946;28;20029;-74
2021/12/08 13:02:26;;;;;;;8.75;3.00;;;11.60;64.60;;;;;;5038995;28;20095;-74
2021/12/08 13:05:08;;;;;;;8.73;2.55;;;11.30;64.40;;;;;;5039156;28;20037;-74
2021/12/08 13:07:39;;;;;;;;;;;11.10;65.30;;;;;;5038929;28;20026;-73
2021/12/08 13:10:32;;;;;;;6.85;1.77;;;10.80;64.60;;;;;;5037316;28;19905;-73
2021/12/08 13:13:13;;;;;;;7.13;1.77;;;10.80;66.60;;;;;;5038680;28;20052;-74
2021/12/08 13:15:44;;;;;;;6.40;1.67;;;10.80;67.20;;;;;;5038628;28;20029;-74
2021/12/08 13:18:11;;;;;;;6.88;1.77;;;10.80;67.00;;;;;;5038050;28;20160;-73
2021/12/08 13:20:42;;;;;;;13.00;2.00;;;10.90;66.80;;;;;;5030808;28;20049;-73
2021/12/08 13:23:10;;;;;;;10.13;2.97;;;11.00;67.50;;;;;;5033404;28;20048;-73
2021/12/08 13:25:45;;;;;;;7.18;2.30;;;11.10;67.10;;;;;;5038645;28;20029;-73
2021/12/08 13:28:20;;;;;;;8.65;1.80;;;11.20;66.90;;;;;;5037026;28;20492;-74
2021/12/08 13:30:52;;;;;;;6.63;1.70;;;11.40;66.80;;;;;;5038621;28;20052;-73
2021/12/08 13:33:31;;;;;;;6.00;1.43;;;11.50;65.90;;;;;;5038241;28;20444;-73
2021/12/08 13:36:30;;;;;;;4.80;1.40;;;11.60;66.10;;;;;;5037948;28;20256;-74
2021/12/08 13:39:10;;;;;;;3.50;1.20;;;11.70;65.10;;;;;;5038142;28;20064;-73
2021/12/08 13:41:51;;;;;;;6.53;1.58;;;11.60;64.40;;;;;;5025931;28;20115;-73
2021/12/08 13:44:40;;;;;;;11.05;1.90;;;11.60;64.10;;;;;;5037786;28;20049;-73
2021/12/08 13:47:23;;;;;;;6.85;1.67;;;11.50;63.80;;;;;;5038203;28;20025;-73
2021/12/08 13:49:57;;;;;;;8.50;2.38;;;11.40;64.30;;;;;;5037995;28;20100;-73
2021/12/08 13:52:26;;;;;;;4.50;1.30;;;11.30;65.20;;;;;;5037557;28;20034;-73
2021/12/08 13:55:05;;;;;;;8.23;1.83;;;11.20;65.30;;;;;;5038133;28;20087;-74
2021/12/08 13:57:38;;;;;;;7.57;1.67;;;11.10;66.40;;;;;;5037964;28;20397;-74
2021/12/08 14:00:15;;;;;;;6.70;1.75;;;10.90;67.10;;;;;;5038157;28;20032;-74
2021/12/08 14:02:49;;;;;;;5.07;1.33;;;10.80;67.00;;;;;;5036331;28;20040;-73
2021/12/08 14:05:30;;;;;;;5.35;2.08;;;10.70;68.00;;;;;;5037933;28;20073;-75
2021/12/08 14:08:01;;;;;;;8.65;1.60;;;10.60;67.90;;;;;;5037645;28;20033;-74
2021/12/08 14:10:34;;;;;;;4.75;1.23;;;10.50;67.70;;;;;;5037523;28;20044;-75
2021/12/08 14:13:16;;;;;;;6.00;2.00;;;10.40;68.10;;;;;;5037509;28;20112;-74
2021/12/08 14:15:48;;;;;;;9.65;1.65;;;10.40;68.20;;;;;;5025091;28;20013;-73
2021/12/08 14:18:24;;;;;;;10.52;1.63;;;10.30;68.00;;;;;;5037466;28;20057;-73